昆明 の空港の天気 - METARとTAF

昆明巫家餽国際空港 ( ZPPP / KMG ) - 中華人民共和国 雲南省昆明市
飛行場実況気象(Metar)
観測時間04/26 00:00 CST (04/25 16:00 UTC)
風向・風速北東 5m/s
視程10km以上
天気現象
全天の4割程度の雲 雲底高度 490m
全天を覆う雲 雲底高度 1220m
気温11℃
湿度94%
気圧1021hPa
METARZPPP 251600Z 05005MPS 9999 SCT016 OVC040 11/10 Q1021 NOSIG
過去の天気等 Google飛行場航空写真 Wunderground天気予報

過去48時間のMETAR

飛行場予報(TAF)
発表時間: 4/25 15:12 CST (4/25 07:12 UTC)
予報対象時間: 25日20時 CST ~ 26日20時 CST
風向・風速北東 4m/s
視程10km以上
全天の4割程度の雲 雲底高度 610m
全天の8割程度の雲 雲底高度 1,010m
25日20時 CST ~ 25日23時 CST に一時的に
天気現象雷雨
少しの積乱雲 雲底高度 610m
全天の4割程度の雲 雲底高度 610m
全天の8割程度の雲 雲底高度 1,010m
TAF ZPPP 250712Z 2512/2612 04004MPS 9999 SCT020 BKN033 TX21/2608Z TN10/2523Z
TEMPO 2512/2515 TSRA FEW020CB SCT020 BKN033